createdAt,value
2022-08-28T00:02:18.597Z,4.07
2022-08-28T00:04:47.184Z,3.45
2022-08-28T00:07:16.253Z,3.83
2022-08-28T00:09:45.059Z,3.90
2022-08-28T00:12:14.988Z,4.13
2022-08-28T00:14:43.540Z,5.55
2022-08-28T00:17:12.022Z,4.85
2022-08-28T00:19:40.558Z,4.97
2022-08-28T00:22:09.111Z,5.00
2022-08-28T00:24:37.652Z,4.93
2022-08-28T00:27:23.995Z,5.30
2022-08-28T00:29:53.864Z,4.50
2022-08-28T00:32:25.174Z,3.75
2022-08-28T00:34:53.711Z,4.35
2022-08-28T00:37:24.108Z,3.70
2022-08-28T00:39:53.835Z,4.40
2022-08-28T00:42:22.461Z,3.80
2022-08-28T00:44:50.961Z,4.15
2022-08-28T00:47:20.862Z,3.70
2022-08-28T00:49:50.662Z,3.75
2022-08-28T00:52:18.849Z,4.10
2022-08-28T00:54:59.446Z,4.78
2022-08-28T00:57:29.585Z,4.28
2022-08-28T00:59:58.062Z,4.32
2022-08-28T01:02:28.062Z,4.40
2022-08-28T01:04:56.888Z,3.80
2022-08-28T01:07:25.439Z,3.90
2022-08-28T01:09:55.226Z,3.40
2022-08-28T01:12:26.158Z,4.40
2022-08-28T01:15:00.093Z,4.60
2022-08-28T01:17:31.300Z,3.90
2022-08-28T01:20:03.022Z,3.67
2022-08-28T01:22:34.965Z,3.20
2022-08-28T01:25:05.736Z,2.95
2022-08-28T01:27:34.236Z,3.28
2022-08-28T01:30:02.938Z,3.20
2022-08-28T01:32:33.164Z,3.50
2022-08-28T01:35:02.297Z,3.50
2022-08-28T01:37:32.020Z,3.30
2022-08-28T01:40:01.341Z,3.65
2022-08-28T01:42:31.249Z,3.92
2022-08-28T01:44:59.709Z,4.65
2022-08-28T01:47:28.184Z,4.00
2022-08-28T01:49:56.762Z,3.90
2022-08-28T01:52:26.509Z,3.88
2022-08-28T01:54:55.281Z,3.58
2022-08-28T01:57:26.050Z,3.40
2022-08-28T01:59:55.923Z,2.83
2022-08-28T02:02:24.379Z,2.80
2022-08-28T02:04:53.930Z,2.72
2022-08-28T02:07:22.443Z,2.23
2022-08-28T02:09:51.729Z,2.87
2022-08-28T02:12:20.728Z,2.55
2022-08-28T02:14:49.271Z,2.17
2022-08-28T02:17:19.221Z,2.17
2022-08-28T02:19:47.736Z,2.33
2022-08-28T02:22:16.141Z,2.20
2022-08-28T02:24:44.626Z,2.53
2022-08-28T02:27:13.022Z,2.80
2022-08-28T02:29:41.469Z,3.03
2022-08-28T02:32:10.016Z,2.30
2022-08-28T02:34:40.361Z,2.50
2022-08-28T02:37:10.140Z,2.40
2022-08-28T02:39:38.723Z,2.70
2022-08-28T02:42:07.420Z,2.80
2022-08-28T02:44:36.484Z,2.77
2022-08-28T02:47:06.474Z,2.93
2022-08-28T02:49:36.354Z,2.60
2022-08-28T02:52:07.101Z,2.43
2022-08-28T02:54:36.039Z,2.40
2022-08-28T02:57:04.584Z,2.73
2022-08-28T02:59:33.086Z,2.40
2022-08-28T03:02:04.054Z,2.60
2022-08-28T03:04:32.632Z,2.78
2022-08-28T03:07:03.640Z,2.60
2022-08-28T03:09:33.553Z,2.87
2022-08-28T03:12:02.035Z,2.27
2022-08-28T03:14:31.031Z,2.30
2022-08-28T03:17:00.067Z,2.37
2022-08-28T03:19:28.769Z,2.47
2022-08-28T03:21:57.279Z,2.33
2022-08-28T03:24:25.985Z,2.20
2022-08-28T03:26:57.167Z,2.40
2022-08-28T03:29:25.710Z,2.23
2022-08-28T03:31:54.160Z,2.33
2022-08-28T03:34:22.570Z,2.07
2022-08-28T03:36:53.531Z,2.97
2022-08-28T03:39:22.058Z,2.50
2022-08-28T03:41:51.566Z,2.30
2022-08-28T03:44:21.394Z,2.50
2022-08-28T03:46:49.864Z,2.70
2022-08-28T03:49:18.652Z,2.80
2022-08-28T03:51:48.161Z,2.00
2022-08-28T03:54:16.686Z,2.33
2022-08-28T03:56:45.183Z,2.67
2022-08-28T03:59:13.590Z,2.90
2022-08-28T04:01:43.487Z,2.90
2022-08-28T04:04:12.241Z,2.33
2022-08-28T04:06:40.738Z,2.27
2022-08-28T04:09:09.589Z,2.43
2022-08-28T04:11:40.755Z,2.40
2022-08-28T04:14:09.212Z,2.70
2022-08-28T04:16:38.557Z,2.70
2022-08-28T04:19:08.509Z,2.50
2022-08-28T04:21:37.004Z,2.30
2022-08-28T04:24:09.379Z,2.13
2022-08-28T04:26:38.135Z,2.63
2022-08-28T04:29:06.719Z,2.23
2022-08-28T04:31:35.695Z,2.43
2022-08-28T04:34:05.159Z,2.10
2022-08-28T04:36:35.455Z,2.13
2022-08-28T04:39:05.811Z,2.10
2022-08-28T04:41:36.794Z,2.33
2022-08-28T04:44:05.584Z,2.10
2022-08-28T04:46:34.265Z,2.50
2022-08-28T04:49:04.239Z,2.40
2022-08-28T04:51:33.175Z,3.30
2022-08-28T04:54:03.481Z,3.83
2022-08-28T04:56:31.963Z,3.50
2022-08-28T04:59:02.255Z,3.40
2022-08-28T05:01:30.861Z,3.60
2022-08-28T05:04:00.500Z,4.27
2022-08-28T05:06:29.890Z,4.63
2022-08-28T05:08:59.282Z,4.13
2022-08-28T05:11:33.598Z,4.20
2022-08-28T05:14:04.564Z,3.73
2022-08-28T05:16:34.715Z,4.10
2022-08-28T05:19:03.564Z,3.80
2022-08-28T05:21:32.079Z,3.43
2022-08-28T05:24:00.538Z,2.70
2022-08-28T05:26:30.387Z,2.50
2022-08-28T05:29:00.377Z,2.23
2022-08-28T05:31:29.859Z,2.40
2022-08-28T05:33:58.412Z,2.60
2022-08-28T05:36:32.472Z,2.58
2022-08-28T05:39:02.070Z,2.70
2022-08-28T05:41:32.489Z,2.40
2022-08-28T05:44:01.615Z,2.28
2022-08-28T05:46:30.135Z,2.38
2022-08-28T05:49:00.366Z,2.15
2022-08-28T05:51:29.180Z,2.57
2022-08-28T05:53:58.616Z,2.20
2022-08-28T05:56:29.638Z,2.63
2022-08-28T05:58:59.876Z,2.55
2022-08-28T06:01:29.584Z,2.33
2022-08-28T06:03:58.941Z,2.13
2022-08-28T06:06:29.322Z,2.30
2022-08-28T06:08:59.400Z,2.00
2022-08-28T06:11:30.655Z,2.20
2022-08-28T06:14:02.466Z,2.55
2022-08-28T06:16:31.505Z,2.70
2022-08-28T06:19:00.690Z,2.50
2022-08-28T06:21:29.416Z,2.63
2022-08-28T06:23:58.000Z,2.83
2022-08-28T06:26:26.461Z,2.58
2022-08-28T06:28:54.939Z,2.58
2022-08-28T06:31:28.772Z,2.45
2022-08-28T06:34:01.559Z,2.10
2022-08-28T06:36:31.510Z,2.40
2022-08-28T06:39:00.736Z,2.50
2022-08-28T06:41:29.826Z,2.55
2022-08-28T06:43:58.325Z,2.10
2022-08-28T06:46:30.415Z,2.17
2022-08-28T06:48:58.924Z,2.20
2022-08-28T06:51:27.374Z,2.20
2022-08-28T06:53:55.835Z,1.75
2022-08-28T06:56:26.204Z,2.20
2022-08-28T06:58:56.108Z,2.22
2022-08-28T07:01:25.650Z,2.03
2022-08-28T07:03:56.846Z,2.03
2022-08-28T07:06:25.562Z,2.38
2022-08-28T07:08:54.106Z,2.28
2022-08-28T07:11:26.063Z,2.47
2022-08-28T07:13:55.619Z,2.97
2022-08-28T07:16:25.042Z,2.47
2022-08-28T07:18:54.947Z,2.60
2022-08-28T07:21:23.627Z,2.80
2022-08-28T07:23:52.547Z,3.10
2022-08-28T07:26:22.609Z,3.60
2022-08-28T07:28:51.340Z,3.85
2022-08-28T07:31:21.078Z,4.43
2022-08-28T07:33:50.853Z,4.47
2022-08-28T07:36:29.679Z,4.32
2022-08-28T07:38:59.229Z,5.00
2022-08-28T07:41:28.503Z,5.78
2022-08-28T07:44:14.422Z,5.93
2022-08-28T07:46:43.467Z,6.38
2022-08-28T07:49:12.169Z,5.53
2022-08-28T07:51:41.981Z,5.60
2022-08-28T07:54:15.583Z,5.45
2022-08-28T07:56:46.614Z,6.95
2022-08-28T07:59:17.490Z,6.88
2022-08-28T08:01:49.285Z,8.10
2022-08-28T08:04:18.456Z,6.80
2022-08-28T08:06:48.535Z,7.45
2022-08-28T08:09:18.076Z,7.25
2022-08-28T08:11:46.999Z,7.60
2022-08-28T08:14:18.246Z,8.30
2022-08-28T08:16:47.713Z,8.30
2022-08-28T08:19:17.520Z,7.95
2022-08-28T08:21:46.905Z,8.05
2022-08-28T08:24:21.029Z,7.45
2022-08-28T08:26:57.377Z,7.00
2022-08-28T08:29:28.615Z,6.40
2022-08-28T08:31:58.134Z,7.07
2022-08-28T08:34:27.083Z,8.25
2022-08-28T08:36:55.547Z,7.85
2022-08-28T08:39:25.485Z,7.28
2022-08-28T08:41:55.543Z,7.20
2022-08-28T08:44:33.209Z,7.18
2022-08-28T08:47:11.815Z,6.88
2022-08-28T08:49:43.657Z,7.10
2022-08-28T08:52:20.205Z,7.75
2022-08-28T08:55:03.063Z,7.00
2022-08-28T08:57:33.586Z,7.45
2022-08-28T09:00:02.212Z,7.25
2022-08-28T09:02:33.231Z,8.38
2022-08-28T09:05:05.253Z,7.95
2022-08-28T09:07:39.025Z,9.32
2022-08-28T09:10:11.249Z,10.45
2022-08-28T09:12:45.266Z,8.98
2022-08-28T09:15:16.402Z,9.35
2022-08-28T09:17:47.952Z,10.23
2022-08-28T09:20:20.265Z,11.63
2022-08-28T09:22:58.807Z,9.57
2022-08-28T09:25:45.832Z,8.77
2022-08-28T09:28:16.824Z,10.52
2022-08-28T09:30:45.872Z,8.05
2022-08-28T09:33:14.382Z,8.85
2022-08-28T09:35:42.857Z,8.77
2022-08-28T09:38:19.225Z,10.02
2022-08-28T09:41:05.490Z,8.50
2022-08-28T09:43:36.634Z,9.27
2022-08-28T09:46:06.752Z,7.40
2022-08-28T09:48:37.107Z,9.50
2022-08-28T09:51:06.790Z,8.63
2022-08-28T09:53:36.153Z,8.95
2022-08-28T09:56:07.824Z,9.80
2022-08-28T09:58:39.142Z,8.57
2022-08-28T10:01:13.830Z,9.70
2022-08-28T10:03:46.195Z,8.20
2022-08-28T10:06:17.277Z,7.35
2022-08-28T10:08:56.540Z,8.07
2022-08-28T10:11:30.447Z,7.15
2022-08-28T10:14:05.729Z,7.22
2022-08-28T10:16:37.879Z,7.78
2022-08-28T10:19:10.130Z,8.38
2022-08-28T10:21:41.408Z,6.80
2022-08-28T10:24:26.350Z,6.05
2022-08-28T10:27:01.102Z,5.53
2022-08-28T10:29:35.828Z,7.43
2022-08-28T10:32:21.384Z,6.07
2022-08-28T10:34:55.361Z,5.95
2022-08-28T10:37:29.029Z,6.85
2022-08-28T10:39:58.710Z,5.47
2022-08-28T10:42:35.838Z,5.85
2022-08-28T10:45:08.732Z,6.50
2022-08-28T10:47:39.399Z,6.20
2022-08-28T10:50:10.353Z,5.10
2022-08-28T10:52:40.798Z,5.90
2022-08-28T10:55:12.786Z,5.75
2022-08-28T10:57:43.767Z,5.50
2022-08-28T11:00:16.211Z,5.88
2022-08-28T11:02:47.250Z,5.75
2022-08-28T11:05:15.934Z,5.40
2022-08-28T11:07:46.244Z,4.90
2022-08-28T11:10:19.974Z,5.28
2022-08-28T11:12:48.761Z,4.55
2022-08-28T11:15:37.442Z,4.38
2022-08-28T11:18:21.119Z,4.63
2022-08-28T11:20:56.684Z,4.18
2022-08-28T11:23:29.954Z,3.63
2022-08-28T11:25:59.770Z,3.05
2022-08-28T11:28:43.645Z,3.75
2022-08-28T11:31:38.810Z,3.58
2022-08-28T11:34:08.812Z,3.25
2022-08-28T11:36:55.822Z,4.07
2022-08-28T11:39:24.313Z,2.97
2022-08-28T11:42:11.166Z,3.67
2022-08-28T11:44:44.126Z,3.40
2022-08-28T11:47:31.045Z,3.40
2022-08-28T11:50:04.938Z,3.10
2022-08-28T11:52:41.207Z,2.90
2022-08-28T11:55:15.359Z,2.42
2022-08-28T11:57:56.195Z,2.95
2022-08-28T12:00:25.509Z,2.90
2022-08-28T12:03:08.986Z,3.30
2022-08-28T12:05:40.915Z,3.30
2022-08-28T12:08:11.767Z,3.33
2022-08-28T12:10:57.720Z,2.90
2022-08-28T12:13:53.141Z,3.08
2022-08-28T12:16:22.426Z,3.70
2022-08-28T12:19:02.137Z,3.30
2022-08-28T12:21:37.237Z,3.20
2022-08-28T12:24:09.938Z,3.15
2022-08-28T12:26:45.578Z,2.92
2022-08-28T12:29:22.597Z,3.00
2022-08-28T12:32:13.213Z,3.08
2022-08-28T12:34:44.063Z,3.15
2022-08-28T12:37:25.538Z,2.88
2022-08-28T12:39:54.289Z,3.58
2022-08-28T12:42:26.184Z,3.08
2022-08-28T12:44:54.726Z,3.03
2022-08-28T12:47:26.356Z,3.28
2022-08-28T12:49:54.864Z,2.80
2022-08-28T12:52:27.025Z,2.95
2022-08-28T12:54:58.267Z,3.00
2022-08-28T12:57:26.752Z,2.80
2022-08-28T12:59:56.406Z,3.50
2022-08-28T13:02:27.082Z,3.40
2022-08-28T13:04:57.939Z,3.42
2022-08-28T13:07:31.295Z,3.38
2022-08-28T13:10:01.522Z,3.78
2022-08-28T13:12:37.897Z,3.05
2022-08-28T13:15:37.289Z,3.50
2022-08-28T13:18:05.972Z,3.20
2022-08-28T13:20:35.598Z,3.63
2022-08-28T13:23:06.098Z,3.10
2022-08-28T13:25:35.835Z,3.28
2022-08-28T13:28:05.533Z,3.45
2022-08-28T13:30:34.948Z,3.28
2022-08-28T13:33:05.171Z,3.10
2022-08-28T13:35:38.848Z,3.00
2022-08-28T13:38:10.793Z,2.63
2022-08-28T13:40:57.466Z,3.42
2022-08-28T13:43:27.928Z,3.15
2022-08-28T13:45:56.540Z,3.00
2022-08-28T13:48:26.220Z,3.40
2022-08-28T13:50:56.134Z,3.42
2022-08-28T13:53:25.999Z,3.70
2022-08-28T13:55:55.797Z,2.83
2022-08-28T13:58:24.776Z,3.20
2022-08-28T14:00:53.383Z,3.60
2022-08-28T14:03:36.309Z,3.47
2022-08-28T14:06:05.315Z,3.15
2022-08-28T14:08:35.243Z,3.17
2022-08-28T14:11:03.722Z,3.33
2022-08-28T14:13:32.229Z,3.30
2022-08-28T14:16:00.728Z,2.88
2022-08-28T14:18:29.247Z,3.15
2022-08-28T14:20:57.774Z,2.67
2022-08-28T14:23:26.285Z,3.30
2022-08-28T14:25:56.187Z,3.17
2022-08-28T14:28:24.687Z,3.08
2022-08-28T14:30:53.812Z,2.80
2022-08-28T14:33:22.269Z,3.35
2022-08-28T14:35:51.872Z,3.70
2022-08-28T14:38:20.372Z,3.17
2022-08-28T14:40:49.436Z,3.22
2022-08-28T14:43:19.426Z,3.25
2022-08-28T14:45:49.494Z,3.20
2022-08-28T14:48:18.728Z,3.42
2022-08-28T14:50:48.324Z,3.00
2022-08-28T14:53:17.375Z,3.13
2022-08-28T14:55:47.182Z,3.00
2022-08-28T14:58:16.459Z,3.08
2022-08-28T15:00:47.549Z,3.50
2022-08-28T15:03:16.342Z,3.40
2022-08-28T15:05:45.050Z,3.20
2022-08-28T15:08:14.742Z,3.50
2022-08-28T15:10:43.999Z,3.00
2022-08-28T15:13:12.839Z,3.00
2022-08-28T15:15:42.603Z,3.10
2022-08-28T15:18:12.982Z,3.13
2022-08-28T15:20:41.895Z,2.90
2022-08-28T15:23:10.777Z,3.60
2022-08-28T15:25:39.368Z,2.90
2022-08-28T15:28:08.087Z,3.00
2022-08-28T15:30:36.934Z,3.00
2022-08-28T15:33:06.604Z,3.30
2022-08-28T15:35:37.198Z,2.95
2022-08-28T15:38:06.125Z,3.20
2022-08-28T15:40:52.215Z,2.75
2022-08-28T15:43:20.657Z,3.10
2022-08-28T15:45:50.075Z,3.28
2022-08-28T15:48:18.602Z,3.58
2022-08-28T15:50:48.428Z,3.35
2022-08-28T15:53:18.243Z,2.92
2022-08-28T15:55:46.833Z,3.42
2022-08-28T15:58:15.275Z,3.25
2022-08-28T16:00:44.565Z,3.47
2022-08-28T16:03:13.208Z,3.08
2022-08-28T16:05:41.721Z,3.05
2022-08-28T16:08:12.396Z,3.28
2022-08-28T16:10:41.104Z,3.22
2022-08-28T16:13:09.570Z,2.85
2022-08-28T16:15:38.147Z,3.05
2022-08-28T16:18:09.083Z,2.92
2022-08-28T16:20:37.769Z,2.80
2022-08-28T16:23:06.346Z,3.10
2022-08-28T16:25:36.193Z,2.67
2022-08-28T16:28:04.967Z,2.58
2022-08-28T16:30:33.762Z,3.05
2022-08-28T16:33:04.638Z,2.83
2022-08-28T16:35:33.257Z,2.90
2022-08-28T16:38:05.523Z,2.65
2022-08-28T16:40:34.047Z,2.65
2022-08-28T16:43:03.961Z,3.25
2022-08-28T16:45:32.633Z,2.88
2022-08-28T16:48:01.200Z,2.88
2022-08-28T16:50:32.361Z,3.28
2022-08-28T16:53:04.899Z,3.00
2022-08-28T16:55:35.267Z,3.03
2022-08-28T16:58:05.147Z,2.78
2022-08-28T17:00:33.693Z,2.97
2022-08-28T17:03:02.294Z,2.70
2022-08-28T17:05:31.446Z,2.60
2022-08-28T17:08:00.085Z,2.92
2022-08-28T17:10:29.071Z,2.90
2022-08-28T17:12:58.346Z,3.00
2022-08-28T17:15:28.202Z,3.00
2022-08-28T17:17:57.950Z,2.85
2022-08-28T17:20:44.186Z,2.70
2022-08-28T17:23:12.643Z,2.75
2022-08-28T17:25:41.113Z,3.20
2022-08-28T17:28:10.901Z,3.10
2022-08-28T17:30:40.794Z,3.13
2022-08-28T17:33:09.312Z,2.33
2022-08-28T17:35:38.550Z,2.35
2022-08-28T17:38:10.821Z,2.42
2022-08-28T17:40:39.559Z,3.03
2022-08-28T17:43:08.351Z,2.65
2022-08-28T17:45:36.769Z,3.20
2022-08-28T17:48:06.778Z,2.90
2022-08-28T17:50:35.297Z,3.30
2022-08-28T17:53:03.856Z,3.45
2022-08-28T17:55:32.300Z,3.10
2022-08-28T17:58:00.748Z,3.55
2022-08-28T18:00:29.248Z,3.50
2022-08-28T18:02:57.865Z,2.88
2022-08-28T18:05:27.955Z,3.50
2022-08-28T18:07:56.453Z,3.50
2022-08-28T18:10:25.060Z,3.30
2022-08-28T18:12:54.154Z,6.22
2022-08-28T18:15:22.730Z,6.65
2022-08-28T18:17:51.234Z,4.18
2022-08-28T18:20:20.010Z,3.50
2022-08-28T18:22:50.227Z,4.07
2022-08-28T18:25:33.474Z,3.50
2022-08-28T18:28:02.061Z,3.42
2022-08-28T18:30:30.689Z,3.38
2022-08-28T18:32:59.294Z,3.50
2022-08-28T18:35:31.686Z,3.72
2022-08-28T18:38:02.649Z,3.65
2022-08-28T18:40:31.324Z,3.03
2022-08-28T18:42:59.916Z,3.35
2022-08-28T18:45:28.744Z,2.83
2022-08-28T18:47:57.350Z,2.95
2022-08-28T18:50:28.368Z,3.20
2022-08-28T18:52:57.856Z,2.72
2022-08-28T18:55:29.194Z,3.15
2022-08-28T18:57:59.870Z,2.85
2022-08-28T19:00:28.810Z,2.80
2022-08-28T19:02:57.510Z,2.95
2022-08-28T19:05:26.191Z,2.47
2022-08-28T19:07:54.641Z,3.15
2022-08-28T19:10:33.849Z,2.67
2022-08-28T19:13:03.131Z,2.80
2022-08-28T19:15:31.797Z,2.55
2022-08-28T19:18:01.518Z,2.78
2022-08-28T19:20:31.045Z,2.78
2022-08-28T19:22:59.958Z,2.83
2022-08-28T19:25:31.480Z,2.75
2022-08-28T19:28:01.019Z,2.83
2022-08-28T19:30:31.192Z,3.22
2022-08-28T19:32:59.680Z,2.92
2022-08-28T19:35:28.171Z,2.92
2022-08-28T19:37:56.764Z,2.42
2022-08-28T19:40:25.899Z,2.30
2022-08-28T19:42:55.765Z,2.25
2022-08-28T19:45:24.285Z,2.40
2022-08-28T19:47:53.381Z,2.40
2022-08-28T19:50:22.016Z,1.90
2022-08-28T19:52:50.544Z,1.67
2022-08-28T19:55:20.580Z,1.83
2022-08-28T19:57:49.596Z,1.90
2022-08-28T20:00:20.380Z,2.15
2022-08-28T20:02:49.515Z,2.13
2022-08-28T20:05:18.106Z,2.03
2022-08-28T20:07:46.664Z,1.98
2022-08-28T20:10:16.076Z,1.80
2022-08-28T20:12:48.004Z,1.77
2022-08-28T20:15:17.803Z,1.67
2022-08-28T20:17:49.882Z,2.00
2022-08-28T20:20:19.529Z,1.70
2022-08-28T20:22:48.035Z,1.77
2022-08-28T20:25:18.165Z,1.52
2022-08-28T20:27:46.610Z,1.88
2022-08-28T20:30:15.693Z,1.63
2022-08-28T20:32:44.239Z,1.92
2022-08-28T20:35:15.367Z,1.60
2022-08-28T20:37:45.467Z,1.80
2022-08-28T20:40:14.933Z,1.50
2022-08-28T20:42:43.727Z,1.50
2022-08-28T20:45:12.587Z,1.70
2022-08-28T20:47:41.135Z,1.48
2022-08-28T20:50:09.948Z,1.40
2022-08-28T20:52:39.804Z,1.50
2022-08-28T20:55:09.434Z,1.45
2022-08-28T20:57:38.062Z,1.38
2022-08-28T21:00:07.913Z,1.50
2022-08-28T21:02:36.438Z,1.65
2022-08-28T21:05:05.683Z,1.65
2022-08-28T21:07:35.226Z,1.67
2022-08-28T21:10:07.915Z,1.55
2022-08-28T21:12:36.944Z,1.48
2022-08-28T21:15:05.982Z,1.75
2022-08-28T21:17:34.511Z,1.58
2022-08-28T21:20:04.489Z,1.20
2022-08-28T21:22:35.264Z,1.60
2022-08-28T21:25:07.242Z,1.45
2022-08-28T21:27:35.846Z,1.50
2022-08-28T21:30:04.737Z,1.58
2022-08-28T21:32:34.132Z,1.75
2022-08-28T21:35:03.478Z,1.50
2022-08-28T21:37:32.176Z,1.40
2022-08-28T21:40:00.931Z,1.80
2022-08-28T21:42:31.050Z,1.30
2022-08-28T21:44:59.570Z,1.40
2022-08-28T21:47:29.328Z,1.55
2022-08-28T21:49:58.382Z,1.30
2022-08-28T21:52:28.321Z,1.50
2022-08-28T21:55:01.123Z,1.42
2022-08-28T21:57:32.144Z,1.60
2022-08-28T22:00:00.676Z,1.60
2022-08-28T22:02:29.410Z,1.40
2022-08-28T22:04:57.968Z,1.65
2022-08-28T22:07:26.501Z,1.60
2022-08-28T22:09:54.992Z,1.70
2022-08-28T22:12:23.431Z,1.48
2022-08-28T22:14:54.254Z,1.23
2022-08-28T22:17:22.861Z,1.73
2022-08-28T22:19:51.349Z,1.50
2022-08-28T22:22:37.286Z,1.52
2022-08-28T22:25:06.059Z,1.80
2022-08-28T22:27:34.749Z,1.30
2022-08-28T22:30:04.605Z,1.60
2022-08-28T22:32:33.362Z,1.45
2022-08-28T22:35:01.898Z,1.50
2022-08-28T22:37:30.344Z,1.50
2022-08-28T22:39:59.324Z,1.42
2022-08-28T22:42:27.855Z,2.05
2022-08-28T22:44:56.318Z,1.60
2022-08-28T22:47:26.149Z,1.70
2022-08-28T22:49:58.450Z,1.63
2022-08-28T22:52:27.176Z,1.33
2022-08-28T22:54:55.685Z,1.40
2022-08-28T22:57:24.189Z,1.63
2022-08-28T22:59:52.642Z,1.60
2022-08-28T23:02:21.797Z,1.50
2022-08-28T23:04:57.308Z,1.50
2022-08-28T23:07:25.769Z,1.42
2022-08-28T23:09:54.235Z,1.70
2022-08-28T23:12:22.713Z,1.60
2022-08-28T23:14:51.222Z,1.58
2022-08-28T23:17:19.883Z,1.60
2022-08-28T23:19:49.224Z,1.75
2022-08-28T23:22:19.923Z,1.60
2022-08-28T23:24:48.847Z,1.63
2022-08-28T23:27:35.775Z,1.70
2022-08-28T23:30:04.629Z,1.63
2022-08-28T23:32:34.174Z,1.60
2022-08-28T23:35:02.776Z,1.52
2022-08-28T23:37:37.653Z,1.58
2022-08-28T23:40:07.201Z,1.60
2022-08-28T23:42:35.671Z,1.70
2022-08-28T23:45:06.508Z,1.85
2022-08-28T23:47:35.068Z,1.50
2022-08-28T23:50:12.957Z,1.30
2022-08-28T23:52:43.144Z,1.40
2022-08-28T23:55:13.259Z,1.63
2022-08-28T23:57:41.917Z,1.50
